createdAt,value
2022-08-17T00:01:51.694Z,18.20
2022-08-17T00:04:30.328Z,18.30
2022-08-17T00:06:58.506Z,18.30
2022-08-17T00:09:33.134Z,18.30
2022-08-17T00:12:40.576Z,18.30
2022-08-17T00:14:52.566Z,18.30
2022-08-17T00:17:21.156Z,18.40
2022-08-17T00:20:06.408Z,18.40
2022-08-17T00:22:37.638Z,18.40
2022-08-17T00:25:13.195Z,18.40
2022-08-17T00:27:53.355Z,18.40
2022-08-17T00:30:23.917Z,18.40
2022-08-17T00:33:16.082Z,18.50
2022-08-17T00:35:51.647Z,18.50
2022-08-17T00:38:20.146Z,18.50
2022-08-17T00:41:03.990Z,18.50
2022-08-17T00:43:34.263Z,18.60
2022-08-17T00:46:08.160Z,18.60
2022-08-17T00:48:36.676Z,18.60
2022-08-17T00:51:09.948Z,18.60
2022-08-17T00:54:09.411Z,18.60
2022-08-17T00:56:46.089Z,18.60
2022-08-17T00:59:19.078Z,18.60
2022-08-17T01:01:53.968Z,18.60
2022-08-17T01:04:31.990Z,18.60
2022-08-17T01:07:02.407Z,18.60
2022-08-17T01:09:31.514Z,18.50
2022-08-17T01:11:59.758Z,18.50
2022-08-17T01:14:30.987Z,18.50
2022-08-17T01:17:00.598Z,18.40
2022-08-17T01:19:32.348Z,18.40
2022-08-17T01:22:12.762Z,18.40
2022-08-17T01:25:06.435Z,18.30
2022-08-17T01:27:36.543Z,18.30
2022-08-17T01:30:56.825Z,18.20
2022-08-17T01:33:09.944Z,18.20
2022-08-17T01:35:41.492Z,18.10
2022-08-17T01:38:09.760Z,18.00
2022-08-17T01:40:47.305Z,18.00
2022-08-17T01:43:34.938Z,17.90
2022-08-17T01:46:04.421Z,17.90
2022-08-17T01:48:34.315Z,17.80
2022-08-17T01:51:07.763Z,17.80
2022-08-17T01:53:47.783Z,17.70
2022-08-17T01:56:18.486Z,17.70
2022-08-17T01:58:53.568Z,17.60
2022-08-17T02:01:26.048Z,17.60
2022-08-17T02:04:00.487Z,17.50
2022-08-17T02:06:52.879Z,17.50
2022-08-17T02:09:25.574Z,17.50
2022-08-17T02:12:37.270Z,17.50
2022-08-17T02:14:52.215Z,17.40
2022-08-17T02:17:20.244Z,17.40
2022-08-17T02:19:48.930Z,17.40
2022-08-17T02:22:18.388Z,17.40
2022-08-17T02:25:00.288Z,17.40
2022-08-17T02:27:30.265Z,17.40
2022-08-17T02:29:58.323Z,17.40
2022-08-17T02:32:29.634Z,17.30
2022-08-17T02:35:06.849Z,17.30
2022-08-17T02:37:37.555Z,17.30
2022-08-17T02:40:10.868Z,17.30
2022-08-17T02:42:41.694Z,17.40
2022-08-17T02:45:22.838Z,17.40
2022-08-17T02:47:50.877Z,17.40
2022-08-17T02:50:29.443Z,17.40
2022-08-17T02:52:58.777Z,17.40
2022-08-17T02:55:34.723Z,17.40
2022-08-17T02:58:06.796Z,17.40
2022-08-17T03:00:42.826Z,17.60
2022-08-17T03:03:15.274Z,17.30
2022-08-17T03:05:46.215Z,17.30
2022-08-17T03:08:14.692Z,17.30
2022-08-17T03:10:47.857Z,17.30
2022-08-17T03:13:18.106Z,17.20
2022-08-17T03:15:56.053Z,17.20
2022-08-17T03:18:26.329Z,17.20
2022-08-17T03:21:04.484Z,17.10
2022-08-17T03:23:32.867Z,17.10
2022-08-17T03:26:12.288Z,17.10
2022-08-17T03:28:44.067Z,17.00
2022-08-17T03:31:19.559Z,17.00
2022-08-17T03:33:50.215Z,17.00
2022-08-17T03:36:24.947Z,17.00
2022-08-17T03:39:02.835Z,17.00
2022-08-17T03:41:33.932Z,17.00
2022-08-17T03:44:08.479Z,17.00
2022-08-17T03:47:06.566Z,17.00
2022-08-17T03:49:56.094Z,17.00
2022-08-17T03:52:52.221Z,17.00
2022-08-17T03:55:42.778Z,17.00
2022-08-17T03:58:16.369Z,17.00
2022-08-17T04:00:57.647Z,17.00
2022-08-17T04:03:32.608Z,17.10
2022-08-17T04:06:13.596Z,17.10
2022-08-17T04:08:42.844Z,17.00
2022-08-17T04:11:11.632Z,17.10
2022-08-17T04:13:41.015Z,17.00
2022-08-17T04:16:09.757Z,17.00
2022-08-17T04:18:43.671Z,17.00
2022-08-17T04:21:15.578Z,17.00
2022-08-17T04:23:50.873Z,17.00
2022-08-17T04:26:52.560Z,16.90
2022-08-17T04:29:09.225Z,16.90
2022-08-17T04:31:42.433Z,16.90
2022-08-17T04:34:12.165Z,16.90
2022-08-17T04:36:50.319Z,16.80
2022-08-17T04:39:19.589Z,16.80
2022-08-17T04:42:06.352Z,16.70
2022-08-17T04:44:37.348Z,16.70
2022-08-17T04:47:08.274Z,16.70
2022-08-17T04:49:42.379Z,16.70
2022-08-17T04:52:29.744Z,16.70
2022-08-17T04:55:07.267Z,16.70
2022-08-17T04:57:45.034Z,16.70
2022-08-17T05:00:13.856Z,16.80
2022-08-17T05:02:50.988Z,16.80
2022-08-17T05:05:40.399Z,16.90
2022-08-17T05:08:11.523Z,17.00
2022-08-17T05:10:45.251Z,17.00
2022-08-17T05:13:34.999Z,17.00
2022-08-17T05:16:04.612Z,17.00
2022-08-17T05:18:33.064Z,17.00
2022-08-17T05:21:07.698Z,17.00
2022-08-17T05:23:42.470Z,17.00
2022-08-17T05:26:26.698Z,16.90
2022-08-17T05:29:03.057Z,16.90
2022-08-17T05:31:36.490Z,16.90
2022-08-17T05:34:07.535Z,16.90
2022-08-17T05:36:44.084Z,16.90
2022-08-17T05:39:17.773Z,16.90
2022-08-17T05:41:50.916Z,17.00
2022-08-17T05:44:21.462Z,17.00
2022-08-17T05:46:54.391Z,17.00
2022-08-17T05:49:29.359Z,17.00
2022-08-17T05:52:02.251Z,17.10
2022-08-17T05:54:42.194Z,17.10
2022-08-17T05:57:22.709Z,17.10
2022-08-17T06:00:21.029Z,17.20
2022-08-17T06:03:19.776Z,17.30
2022-08-17T06:05:56.820Z,17.30
2022-08-17T06:09:06.052Z,17.40
2022-08-17T06:12:14.223Z,17.60
2022-08-17T06:15:04.259Z,17.80
2022-08-17T06:17:34.931Z,18.00
2022-08-17T06:20:19.105Z,18.10
2022-08-17T06:23:04.485Z,18.30
2022-08-17T06:25:42.803Z,18.40
2022-08-17T06:28:27.090Z,18.40
2022-08-17T06:31:06.408Z,18.50
2022-08-17T06:33:37.608Z,18.60
2022-08-17T06:36:17.641Z,18.60
2022-08-17T06:39:06.125Z,18.70
2022-08-17T06:43:00.874Z,18.70
2022-08-17T06:45:19.896Z,18.80
2022-08-17T06:48:07.470Z,19.00
2022-08-17T06:50:48.447Z,19.20
2022-08-17T06:53:45.223Z,19.40
2022-08-17T06:56:53.694Z,19.60
2022-08-17T06:59:54.626Z,19.80
2022-08-17T07:02:52.211Z,20.10
2022-08-17T07:05:23.998Z,20.50
2022-08-17T07:08:04.775Z,20.80
2022-08-17T07:10:47.805Z,20.90
2022-08-17T07:13:41.442Z,21.20
2022-08-17T07:16:36.788Z,21.30
2022-08-17T07:19:10.786Z,21.30
2022-08-17T07:22:07.219Z,21.30
2022-08-17T07:24:41.597Z,21.30
2022-08-17T07:27:17.892Z,21.20
2022-08-17T07:29:53.826Z,21.20
2022-08-17T07:32:31.958Z,21.20
2022-08-17T07:35:10.703Z,21.10
2022-08-17T07:37:58.737Z,21.10
2022-08-17T07:41:03.662Z,21.00
2022-08-17T07:43:43.987Z,21.00
2022-08-17T07:46:38.412Z,21.10
2022-08-17T07:49:09.554Z,21.20
2022-08-17T07:51:56.697Z,21.30
2022-08-17T07:54:36.965Z,21.50
2022-08-17T07:57:16.862Z,21.60
2022-08-17T08:00:17.283Z,21.70
2022-08-17T08:03:01.725Z,21.70
2022-08-17T08:05:49.904Z,21.70
2022-08-17T08:08:36.518Z,21.70
2022-08-17T08:11:28.501Z,21.70
2022-08-17T08:14:16.753Z,21.60
2022-08-17T08:16:59.994Z,21.60
2022-08-17T08:19:29.995Z,21.60
2022-08-17T08:22:47.372Z,21.70
2022-08-17T08:25:28.700Z,21.60
2022-08-17T08:28:16.657Z,21.60
2022-08-17T08:30:54.389Z,21.60
2022-08-17T08:33:42.534Z,21.70
2022-08-17T08:37:12.478Z,21.80
2022-08-17T08:39:48.702Z,21.90
2022-08-17T08:42:52.127Z,22.10
2022-08-17T08:45:32.192Z,22.10
2022-08-17T08:48:56.982Z,22.10
2022-08-17T08:51:57.843Z,22.00
2022-08-17T08:55:01.465Z,21.90
2022-08-17T08:57:39.586Z,21.80
2022-08-17T09:00:20.773Z,21.80
2022-08-17T09:03:42.737Z,21.70
2022-08-17T09:07:01.853Z,21.90
2022-08-17T09:09:59.137Z,22.00
2022-08-17T09:13:09.966Z,22.20
2022-08-17T09:15:45.283Z,22.40
2022-08-17T09:19:00.458Z,22.60
2022-08-17T09:22:17.625Z,22.90
2022-08-17T09:25:16.881Z,23.10
2022-08-17T09:28:17.226Z,23.50
2022-08-17T09:30:51.742Z,23.90
2022-08-17T09:33:26.241Z,23.90
2022-08-17T09:36:10.199Z,24.00
2022-08-17T09:38:59.032Z,24.20
2022-08-17T09:41:33.546Z,24.80
2022-08-17T09:44:31.903Z,25.40
2022-08-17T09:47:20.022Z,25.70
2022-08-17T09:49:53.272Z,25.70
2022-08-17T09:52:27.811Z,25.60
2022-08-17T09:55:01.178Z,25.50
2022-08-17T09:58:05.004Z,25.30
2022-08-17T10:00:40.393Z,25.00
2022-08-17T10:03:34.435Z,24.80
2022-08-17T10:06:23.371Z,24.60
2022-08-17T10:09:18.599Z,24.40
2022-08-17T10:12:13.222Z,24.40
2022-08-17T10:15:12.797Z,24.60
2022-08-17T10:18:08.380Z,25.00
2022-08-17T10:21:24.859Z,25.30
2022-08-17T10:24:39.972Z,25.70
2022-08-17T10:27:42.381Z,26.40
2022-08-17T10:30:17.926Z,27.30
2022-08-17T10:33:22.512Z,28.00
2022-08-17T10:36:08.739Z,28.80
2022-08-17T10:39:03.416Z,29.60
2022-08-17T10:41:45.015Z,29.70
2022-08-17T10:44:39.420Z,29.40
2022-08-17T10:47:13.858Z,28.90
2022-08-17T10:50:00.520Z,28.40
2022-08-17T10:52:31.415Z,28.00
2022-08-17T10:55:01.590Z,27.90
2022-08-17T10:57:44.921Z,27.80
2022-08-17T11:00:27.401Z,27.70
2022-08-17T11:02:57.593Z,27.50
2022-08-17T11:06:04.927Z,27.30
2022-08-17T11:08:57.574Z,27.10
2022-08-17T11:11:37.805Z,27.00
2022-08-17T11:14:53.450Z,27.20
2022-08-17T11:17:41.546Z,27.60
2022-08-17T11:20:28.231Z,28.20
2022-08-17T11:23:33.650Z,28.50
2022-08-17T11:26:20.963Z,28.40
2022-08-17T11:29:01.362Z,28.40
2022-08-17T11:31:38.607Z,28.80
2022-08-17T11:34:26.979Z,29.30
2022-08-17T11:37:26.295Z,29.70
2022-08-17T11:40:14.861Z,30.10
2022-08-17T11:43:01.542Z,30.70
2022-08-17T11:45:41.011Z,31.10
2022-08-17T11:48:52.335Z,30.80
2022-08-17T11:51:38.858Z,30.30
2022-08-17T11:54:34.433Z,29.50
2022-08-17T11:57:27.187Z,28.90
2022-08-17T12:00:19.273Z,28.20
2022-08-17T12:03:25.964Z,27.80
2022-08-17T12:06:05.856Z,27.30
2022-08-17T12:08:43.542Z,27.00
2022-08-17T12:11:56.305Z,26.70
2022-08-17T12:14:20.231Z,26.50
2022-08-17T12:17:02.644Z,26.30
2022-08-17T12:19:34.183Z,26.20
2022-08-17T12:22:32.836Z,26.00
2022-08-17T12:25:15.027Z,26.00
2022-08-17T12:28:05.990Z,26.00
2022-08-17T12:30:36.234Z,26.00
2022-08-17T12:33:04.358Z,26.00
2022-08-17T12:35:41.771Z,26.00
2022-08-17T12:38:32.124Z,25.90
2022-08-17T12:41:25.564Z,25.90
2022-08-17T12:44:02.621Z,25.80
2022-08-17T12:46:35.503Z,25.70
2022-08-17T12:49:16.725Z,25.60
2022-08-17T12:51:46.938Z,25.50
2022-08-17T12:54:23.338Z,25.50
2022-08-17T12:56:54.065Z,25.40
2022-08-17T12:59:29.702Z,25.40
2022-08-17T13:02:01.929Z,25.50
2022-08-17T13:04:33.345Z,25.40
2022-08-17T13:07:05.446Z,25.40
2022-08-17T13:09:45.671Z,25.30
2022-08-17T13:12:13.338Z,25.30
2022-08-17T13:14:49.799Z,25.20
2022-08-17T13:17:31.167Z,25.00
2022-08-17T13:19:59.603Z,24.90
2022-08-17T13:22:35.564Z,24.80
2022-08-17T13:25:07.548Z,24.70
2022-08-17T13:27:35.985Z,24.60
2022-08-17T13:30:19.825Z,24.50
2022-08-17T13:32:48.355Z,24.50
2022-08-17T13:35:51.925Z,24.50
2022-08-17T13:38:49.784Z,24.50
2022-08-17T13:41:33.763Z,24.50
2022-08-17T13:44:04.327Z,24.40
2022-08-17T13:46:33.607Z,24.40
2022-08-17T13:49:09.797Z,24.40
2022-08-17T13:51:47.553Z,24.40
2022-08-17T13:54:18.915Z,24.40
2022-08-17T13:57:00.388Z,24.40
2022-08-17T13:59:55.230Z,24.50
2022-08-17T14:02:28.528Z,24.50
2022-08-17T14:04:58.480Z,24.40
2022-08-17T14:07:31.648Z,24.40
2022-08-17T14:10:05.911Z,24.30
2022-08-17T14:12:35.164Z,24.30
2022-08-17T14:15:03.528Z,24.30
2022-08-17T14:17:46.003Z,24.30
2022-08-17T14:20:24.897Z,24.30
2022-08-17T14:22:55.942Z,24.30
2022-08-17T14:25:27.011Z,24.30
2022-08-17T14:27:55.699Z,24.40
2022-08-17T14:30:26.962Z,24.40
2022-08-17T14:33:00.264Z,24.40
2022-08-17T14:35:29.561Z,24.40
2022-08-17T14:37:58.784Z,24.30
2022-08-17T14:40:27.227Z,24.30
2022-08-17T14:42:57.904Z,24.30
2022-08-17T14:45:29.979Z,24.30
2022-08-17T14:48:05.815Z,24.30
2022-08-17T14:50:36.116Z,24.40
2022-08-17T14:53:15.336Z,24.30
2022-08-17T14:55:47.348Z,24.30
2022-08-17T14:58:16.470Z,24.40
2022-08-17T15:00:44.601Z,24.30
2022-08-17T15:03:13.684Z,24.30
2022-08-17T15:05:46.069Z,24.30
2022-08-17T15:08:13.959Z,24.30
2022-08-17T15:10:41.730Z,24.30
2022-08-17T15:13:20.130Z,24.30
2022-08-17T15:15:49.020Z,24.30
2022-08-17T15:18:17.886Z,24.20
2022-08-17T15:20:48.789Z,24.10
2022-08-17T15:23:20.692Z,24.00
2022-08-17T15:25:52.769Z,23.90
2022-08-17T15:28:23.089Z,23.80
2022-08-17T15:30:53.337Z,23.70
2022-08-17T15:33:29.316Z,23.60
2022-08-17T15:36:10.247Z,23.60
2022-08-17T15:38:40.707Z,23.70
2022-08-17T15:41:15.500Z,23.70
2022-08-17T15:43:45.143Z,23.70
2022-08-17T15:46:17.656Z,23.70
2022-08-17T15:48:48.173Z,23.70
2022-08-17T15:51:26.522Z,23.70
2022-08-17T15:53:57.885Z,23.70
2022-08-17T15:56:29.181Z,23.70
2022-08-17T15:58:57.986Z,23.70
2022-08-17T16:02:33.667Z,23.70
2022-08-17T16:04:30.427Z,23.60
2022-08-17T16:06:59.971Z,23.50
2022-08-17T16:09:28.005Z,23.50
2022-08-17T16:11:56.464Z,23.40
2022-08-17T16:14:32.521Z,23.30
2022-08-17T16:17:38.867Z,23.30
2022-08-17T16:19:58.258Z,23.10
2022-08-17T16:22:38.820Z,23.00
2022-08-17T16:25:14.594Z,23.00
2022-08-17T16:27:43.701Z,22.90
2022-08-17T16:30:17.556Z,22.90
2022-08-17T16:32:47.490Z,22.90
2022-08-17T16:35:20.120Z,22.90
2022-08-17T16:37:54.498Z,22.90
2022-08-17T16:40:26.218Z,22.90
2022-08-17T16:42:56.048Z,22.90
2022-08-17T16:45:28.538Z,22.90
2022-08-17T16:47:59.189Z,22.80
2022-08-17T16:50:27.001Z,22.80
2022-08-17T16:53:06.677Z,22.80
2022-08-17T16:55:38.033Z,22.70
2022-08-17T16:58:23.416Z,22.70
2022-08-17T17:00:51.219Z,22.80
2022-08-17T17:03:22.243Z,22.70
2022-08-17T17:06:13.520Z,22.70
2022-08-17T17:08:55.706Z,22.70
2022-08-17T17:11:41.437Z,22.60
2022-08-17T17:14:18.326Z,22.60
2022-08-17T17:17:06.152Z,22.60
2022-08-17T17:20:04.055Z,22.50
2022-08-17T17:22:36.970Z,22.50
2022-08-17T17:25:30.535Z,22.50
2022-08-17T17:28:26.415Z,22.40
2022-08-17T17:31:16.289Z,22.40
2022-08-17T17:33:55.837Z,22.40
2022-08-17T17:36:35.443Z,22.30
2022-08-17T17:39:23.119Z,22.20
2022-08-17T17:41:57.854Z,22.20
2022-08-17T17:44:30.734Z,22.20
2022-08-17T17:47:01.464Z,22.10
2022-08-17T17:49:35.685Z,22.00
2022-08-17T17:52:13.387Z,22.00
2022-08-17T17:54:53.997Z,21.90
2022-08-17T17:58:22.564Z,21.90
2022-08-17T18:01:27.834Z,21.90
2022-08-17T18:04:11.178Z,21.90
2022-08-17T18:07:09.883Z,21.80
2022-08-17T18:09:51.939Z,22.30
2022-08-17T18:12:48.677Z,21.70
2022-08-17T18:15:51.066Z,21.70
2022-08-17T18:18:18.793Z,20.60
2022-08-17T18:21:00.276Z,21.50
2022-08-17T18:23:31.347Z,21.40
2022-08-17T18:26:04.287Z,21.30
2022-08-17T18:28:43.572Z,21.30
2022-08-17T18:31:25.166Z,21.20
2022-08-17T18:34:46.022Z,21.10
2022-08-17T18:37:37.755Z,21.00
2022-08-17T18:40:20.583Z,21.20
2022-08-17T18:43:44.341Z,21.00
2022-08-17T18:46:33.263Z,21.00
2022-08-17T18:49:04.810Z,21.00
2022-08-17T18:51:42.880Z,20.90
2022-08-17T18:54:23.546Z,20.90
2022-08-17T18:56:59.934Z,20.90
2022-08-17T18:59:48.413Z,20.80
2022-08-17T19:02:43.840Z,20.80
2022-08-17T19:05:29.017Z,20.70
2022-08-17T19:08:33.973Z,20.70
2022-08-17T19:11:05.222Z,20.60
2022-08-17T19:13:57.140Z,20.60
2022-08-17T19:16:27.817Z,20.50
2022-08-17T19:19:22.367Z,20.50
2022-08-17T19:21:59.178Z,20.40
2022-08-17T19:24:30.706Z,20.40
2022-08-17T19:27:13.000Z,20.30
2022-08-17T19:30:06.965Z,20.30
2022-08-17T19:32:41.002Z,20.40
2022-08-17T19:35:17.358Z,20.30
2022-08-17T19:37:45.551Z,20.40
2022-08-17T19:40:51.222Z,20.40
2022-08-17T19:43:40.701Z,20.50
2022-08-17T19:46:17.061Z,20.50
2022-08-17T19:48:54.078Z,20.60
2022-08-17T19:51:36.175Z,20.60
2022-08-17T19:54:35.104Z,20.60
2022-08-17T19:57:27.637Z,20.60
2022-08-17T20:00:12.131Z,20.50
2022-08-17T20:03:05.953Z,20.50
2022-08-17T20:08:58.124Z,20.50
2022-08-17T20:11:42.364Z,20.50
2022-08-17T20:14:15.182Z,20.40
2022-08-17T20:16:46.503Z,20.40
2022-08-17T20:19:42.048Z,20.50
2022-08-17T20:22:24.583Z,20.40
2022-08-17T20:25:30.130Z,20.40
2022-08-17T20:28:19.550Z,20.40
2022-08-17T20:30:50.128Z,20.40
2022-08-17T20:33:34.589Z,20.40
2022-08-17T20:36:11.254Z,20.30
2022-08-17T20:38:51.372Z,20.20
2022-08-17T20:41:28.519Z,20.20
2022-08-17T20:43:59.271Z,20.20
2022-08-17T20:46:51.745Z,20.20
2022-08-17T20:49:31.292Z,20.20
2022-08-17T20:52:07.782Z,20.10
2022-08-17T20:54:57.363Z,20.20
2022-08-17T20:57:34.738Z,20.20
2022-08-17T21:00:34.922Z,20.10
2022-08-17T21:03:24.580Z,20.00
2022-08-17T21:06:15.349Z,20.00
2022-08-17T21:09:29.956Z,20.00
2022-08-17T21:12:04.620Z,20.00
2022-08-17T21:14:58.215Z,20.10
2022-08-17T21:18:04.631Z,20.10
2022-08-17T21:21:00.192Z,20.20
2022-08-17T21:23:59.559Z,20.20
2022-08-17T21:26:30.568Z,20.20
2022-08-17T21:29:29.904Z,20.20
2022-08-17T21:32:03.291Z,20.20
2022-08-17T21:34:35.928Z,20.20
2022-08-17T21:37:26.548Z,20.20
2022-08-17T21:40:18.853Z,20.20
2022-08-17T21:43:32.543Z,20.20
2022-08-17T21:46:29.575Z,20.20
2022-08-17T21:49:13.428Z,20.10
2022-08-17T21:51:54.285Z,20.20
2022-08-17T21:54:30.973Z,20.10
2022-08-17T21:57:01.615Z,20.10
2022-08-17T21:59:36.779Z,20.10
2022-08-17T22:02:34.013Z,20.00
2022-08-17T22:05:07.938Z,20.00
2022-08-17T22:07:48.672Z,19.90
2022-08-17T22:10:37.073Z,19.80
2022-08-17T22:13:16.991Z,19.80
2022-08-17T22:16:29.400Z,19.70
2022-08-17T22:18:59.023Z,19.70
2022-08-17T22:21:29.507Z,19.60
2022-08-17T22:24:16.322Z,19.60
2022-08-17T22:27:03.168Z,19.60
2022-08-17T22:29:57.128Z,19.60
2022-08-17T22:32:42.213Z,19.70
2022-08-17T22:35:35.045Z,19.60
2022-08-17T22:38:21.089Z,19.60
2022-08-17T22:40:51.728Z,19.60
2022-08-17T22:43:28.717Z,19.60
2022-08-17T22:45:59.314Z,19.60
2022-08-17T22:48:29.778Z,19.60
2022-08-17T22:51:14.282Z,19.60
2022-08-17T22:54:19.010Z,19.60
2022-08-17T22:57:14.621Z,19.60
2022-08-17T22:59:53.723Z,19.60
2022-08-17T23:02:35.681Z,19.60
2022-08-17T23:05:34.418Z,19.70
2022-08-17T23:08:04.453Z,19.70
2022-08-17T23:10:32.517Z,19.70
2022-08-17T23:13:04.260Z,19.80
2022-08-17T23:15:34.014Z,19.80
2022-08-17T23:18:04.919Z,19.80
2022-08-17T23:20:35.864Z,19.80
2022-08-17T23:23:15.080Z,19.80
2022-08-17T23:25:47.464Z,19.80
2022-08-17T23:28:15.377Z,19.80
2022-08-17T23:30:44.773Z,19.90
2022-08-17T23:33:25.703Z,19.90
2022-08-17T23:36:01.574Z,19.90
2022-08-17T23:38:32.958Z,19.90
2022-08-17T23:41:04.965Z,19.90
2022-08-17T23:43:33.495Z,19.90
2022-08-17T23:46:03.721Z,19.90
2022-08-17T23:48:36.684Z,19.90
2022-08-17T23:51:19.063Z,19.90
2022-08-17T23:53:51.485Z,20.00
2022-08-17T23:56:27.291Z,20.00
2022-08-17T23:58:56.056Z,20.00
